createdAt,value
2018-03-15T00:00:10.587Z,7.57
2018-03-15T00:02:48.189Z,10.73
2018-03-15T00:05:23.036Z,10.27
2018-03-15T00:07:58.187Z,10.80
2018-03-15T00:10:33.325Z,9.77
2018-03-15T00:13:08.411Z,9.40
2018-03-15T00:15:43.814Z,10.60
2018-03-15T00:18:18.964Z,10.53
2018-03-15T00:20:54.185Z,9.40
2018-03-15T00:23:30.052Z,8.05
2018-03-15T00:26:05.063Z,8.57
2018-03-15T00:28:40.297Z,11.33
2018-03-15T00:31:15.322Z,6.70
2018-03-15T00:33:50.249Z,10.60
2018-03-15T00:36:25.012Z,8.00
2018-03-15T00:38:59.805Z,7.80
2018-03-15T00:41:34.239Z,10.50
2018-03-15T00:44:09.303Z,7.33
2018-03-15T00:46:44.344Z,9.10
2018-03-15T00:49:19.479Z,9.23
2018-03-15T00:51:55.071Z,11.63
2018-03-15T00:54:30.333Z,9.20
2018-03-15T00:57:04.531Z,10.67
2018-03-15T00:59:40.253Z,8.67
2018-03-15T01:02:14.832Z,7.67
2018-03-15T01:04:50.028Z,9.40
2018-03-15T01:07:25.137Z,9.77
2018-03-15T01:10:00.269Z,9.70
2018-03-15T01:12:35.527Z,7.33
2018-03-15T01:15:10.162Z,9.60
2018-03-15T01:17:45.300Z,7.47
2018-03-15T01:20:20.201Z,9.70
2018-03-15T01:22:55.183Z,9.33
2018-03-15T01:25:30.454Z,11.37
2018-03-15T01:28:05.428Z,8.07
2018-03-15T01:30:40.450Z,7.07
2018-03-15T01:33:16.132Z,10.90
2018-03-15T01:35:51.092Z,12.37
2018-03-15T01:38:26.298Z,11.23
2018-03-15T01:41:01.219Z,6.53
2018-03-15T01:43:36.581Z,13.40
2018-03-15T01:46:12.111Z,11.38
2018-03-15T01:48:47.184Z,10.27
2018-03-15T01:51:22.155Z,12.53
2018-03-15T01:53:56.471Z,8.53
2018-03-15T01:56:31.875Z,10.20
2018-03-15T01:59:07.113Z,10.23
2018-03-15T02:01:42.322Z,10.15
2018-03-15T02:04:17.324Z,10.30
2018-03-15T02:06:52.379Z,11.40
2018-03-15T02:09:28.551Z,11.95
2018-03-15T02:12:03.838Z,11.25
2018-03-15T02:14:39.187Z,8.73
2018-03-15T02:17:13.815Z,9.00
2018-03-15T02:19:49.222Z,10.10
2018-03-15T02:22:24.296Z,13.00
2018-03-15T02:24:59.551Z,10.03
2018-03-15T02:27:34.497Z,10.33
2018-03-15T02:30:09.238Z,9.83
2018-03-15T02:32:44.358Z,10.73
2018-03-15T02:35:19.578Z,11.27
2018-03-15T02:37:54.820Z,10.67
2018-03-15T02:40:29.610Z,11.87
2018-03-15T02:43:04.317Z,11.77
2018-03-15T02:45:39.751Z,13.27
2018-03-15T02:48:14.794Z,10.60
2018-03-15T02:50:49.320Z,14.10
2018-03-15T02:53:24.769Z,6.30
2018-03-15T02:55:59.698Z,12.33
2018-03-15T02:58:34.817Z,9.70
2018-03-15T03:01:09.371Z,12.57
2018-03-15T03:03:44.592Z,13.03
2018-03-15T03:06:19.208Z,12.65
2018-03-15T03:08:54.309Z,11.70
2018-03-15T03:11:29.986Z,15.32
2018-03-15T03:14:06.590Z,11.10
2018-03-15T03:16:41.663Z,10.60
2018-03-15T03:19:16.700Z,11.80
2018-03-15T03:21:51.835Z,11.20
2018-03-15T03:24:28.722Z,9.60
2018-03-15T03:27:03.352Z,9.27
2018-03-15T03:29:38.615Z,11.23
2018-03-15T03:32:13.573Z,12.17
2018-03-15T03:34:48.573Z,9.77
2018-03-15T03:37:22.923Z,12.70
2018-03-15T03:39:58.102Z,10.15
2018-03-15T03:42:32.855Z,14.63
2018-03-15T03:45:07.081Z,13.10
2018-03-15T03:47:41.949Z,13.20
2018-03-15T03:50:16.982Z,11.40
2018-03-15T03:52:51.580Z,11.97
2018-03-15T03:55:26.715Z,11.97
2018-03-15T03:58:01.603Z,13.80
2018-03-15T04:00:36.754Z,13.30
2018-03-15T04:03:12.471Z,15.80
2018-03-15T04:05:47.439Z,14.60
2018-03-15T04:08:22.587Z,11.57
2018-03-15T04:10:57.570Z,13.10
2018-03-15T04:13:32.823Z,17.73
2018-03-15T04:16:07.758Z,19.50
2018-03-15T04:18:42.936Z,9.90
2018-03-15T04:21:17.684Z,14.90
2018-03-15T04:23:52.643Z,14.77
2018-03-15T04:26:28.828Z,18.50
2018-03-15T04:29:03.929Z,21.37
2018-03-15T04:31:38.845Z,15.17
2018-03-15T04:34:13.780Z,17.60
2018-03-15T04:36:48.925Z,18.00
2018-03-15T04:39:23.861Z,17.00
2018-03-15T04:41:58.993Z,16.87
2018-03-15T04:44:33.821Z,16.70
2018-03-15T04:47:08.688Z,16.57
2018-03-15T04:49:43.912Z,10.37
2018-03-15T04:52:19.035Z,23.30
2018-03-15T04:54:54.123Z,11.37
2018-03-15T04:57:29.564Z,20.77
2018-03-15T05:00:04.041Z,17.33
2018-03-15T05:02:39.203Z,16.37
2018-03-15T05:05:14.717Z,13.93
2018-03-15T05:07:49.159Z,13.97
2018-03-15T05:10:23.692Z,15.83
2018-03-15T05:12:58.916Z,23.07
2018-03-15T05:15:34.070Z,21.37
2018-03-15T05:18:09.505Z,25.00
2018-03-15T05:20:44.860Z,22.05
2018-03-15T05:23:19.259Z,23.27
2018-03-15T05:25:54.684Z,24.65
2018-03-15T05:28:30.030Z,28.95
2018-03-15T05:31:05.208Z,29.77
2018-03-15T05:33:39.851Z,36.92
2018-03-15T05:36:14.700Z,22.70
2018-03-15T05:38:49.684Z,31.43
2018-03-15T05:41:24.819Z,26.47
2018-03-15T05:43:59.850Z,26.90
2018-03-15T05:46:34.193Z,27.73
2018-03-15T05:49:08.789Z,28.13
2018-03-15T05:51:44.155Z,35.30
2018-03-15T05:54:19.741Z,28.33
2018-03-15T05:56:54.775Z,32.77
2018-03-15T05:59:29.978Z,28.17
2018-03-15T06:02:04.708Z,30.20
2018-03-15T06:04:40.295Z,28.90
2018-03-15T06:07:15.627Z,24.30
2018-03-15T06:09:50.658Z,31.98
2018-03-15T06:12:25.782Z,30.10
2018-03-15T06:15:00.818Z,30.17
2018-03-15T06:17:36.345Z,24.40
2018-03-15T06:20:10.912Z,19.43
2018-03-15T06:22:45.988Z,16.53
2018-03-15T06:25:21.243Z,17.67
2018-03-15T06:27:55.854Z,33.37
2018-03-15T06:30:30.985Z,25.67
2018-03-15T06:33:05.815Z,20.77
2018-03-15T06:35:40.981Z,17.63
2018-03-15T06:38:16.199Z,24.53
2018-03-15T06:40:51.185Z,21.10
2018-03-15T06:43:26.226Z,27.20
2018-03-15T06:46:01.306Z,28.13
2018-03-15T06:48:36.379Z,24.77
2018-03-15T06:51:11.872Z,22.20
2018-03-15T06:53:47.127Z,26.30
2018-03-15T06:56:21.860Z,15.57
2018-03-15T06:58:56.972Z,24.80
2018-03-15T07:01:32.262Z,19.37
2018-03-15T07:04:08.947Z,19.17
2018-03-15T07:06:43.775Z,26.70
2018-03-15T07:09:18.995Z,22.63
2018-03-15T07:11:54.727Z,25.42
2018-03-15T07:14:29.926Z,14.50
2018-03-15T07:17:04.774Z,19.17
2018-03-15T07:19:40.213Z,15.70
2018-03-15T07:22:15.135Z,20.70
2018-03-15T07:24:50.473Z,17.07
2018-03-15T07:27:25.405Z,19.33
2018-03-15T07:30:00.951Z,24.93
2018-03-15T07:32:36.095Z,22.77
2018-03-15T07:35:11.084Z,23.20
2018-03-15T07:37:45.903Z,17.58
2018-03-15T07:40:21.065Z,18.70
2018-03-15T07:42:56.028Z,19.83
2018-03-15T07:45:31.156Z,14.07
2018-03-15T07:48:05.993Z,20.10
2018-03-15T07:50:41.332Z,20.60
2018-03-15T07:53:16.117Z,21.10
2018-03-15T07:55:51.096Z,15.13
2018-03-15T07:58:26.083Z,20.20
2018-03-15T08:01:00.439Z,22.53
2018-03-15T08:03:35.500Z,17.67
2018-03-15T08:06:11.040Z,23.00
2018-03-15T08:08:46.364Z,13.37
2018-03-15T08:11:21.406Z,15.40
2018-03-15T08:13:56.020Z,16.17
2018-03-15T08:16:31.362Z,17.90
2018-03-15T08:19:06.255Z,20.23
2018-03-15T08:21:41.324Z,14.63
2018-03-15T08:24:16.393Z,15.27
2018-03-15T08:26:51.515Z,17.90
2018-03-15T08:29:26.456Z,23.00
2018-03-15T08:32:01.484Z,21.40
2018-03-15T08:34:36.416Z,18.60
2018-03-15T08:37:11.453Z,17.83
2018-03-15T08:39:46.983Z,17.12
2018-03-15T08:42:22.024Z,19.33
2018-03-15T08:44:56.560Z,16.70
2018-03-15T08:47:31.508Z,15.87
2018-03-15T08:50:05.815Z,20.15
2018-03-15T08:52:41.027Z,18.27
2018-03-15T08:55:16.198Z,15.03
2018-03-15T08:57:51.183Z,19.00
2018-03-15T09:00:26.634Z,15.97
2018-03-15T09:03:01.138Z,17.20
2018-03-15T09:05:36.372Z,20.60
2018-03-15T09:08:11.266Z,15.37
2018-03-15T09:10:46.395Z,14.57
2018-03-15T09:13:21.246Z,17.20
2018-03-15T09:15:55.904Z,15.80
2018-03-15T09:18:31.001Z,15.43
2018-03-15T09:21:06.224Z,15.77
2018-03-15T09:23:41.510Z,14.73
2018-03-15T09:26:16.310Z,11.20
2018-03-15T09:28:51.767Z,13.93
2018-03-15T09:31:26.285Z,14.13
2018-03-15T09:34:01.352Z,13.27
2018-03-15T09:36:36.479Z,15.10
2018-03-15T09:39:11.405Z,14.53
2018-03-15T09:41:47.069Z,16.60
2018-03-15T09:44:22.037Z,12.60
2018-03-15T09:46:57.010Z,15.27
2018-03-15T09:49:32.261Z,12.65
2018-03-15T09:52:07.296Z,11.00
2018-03-15T09:54:42.531Z,16.20
2018-03-15T09:57:17.288Z,15.93
2018-03-15T09:59:52.288Z,14.70
2018-03-15T10:02:27.382Z,12.30
2018-03-15T10:05:02.374Z,13.70
2018-03-15T10:07:37.638Z,15.20
2018-03-15T10:10:13.200Z,14.95
2018-03-15T10:12:48.339Z,9.43
2018-03-15T10:15:23.394Z,15.90
2018-03-15T10:17:58.327Z,15.27
2018-03-15T10:20:33.551Z,12.82
2018-03-15T10:23:08.686Z,12.90
2018-03-15T10:25:44.614Z,12.48
2018-03-15T10:28:19.411Z,14.80
2018-03-15T10:30:54.449Z,14.07
2018-03-15T10:33:35.167Z,18.87
2018-03-15T10:36:10.436Z,14.93
2018-03-15T10:38:45.988Z,17.10
2018-03-15T10:41:21.327Z,16.92
2018-03-15T10:43:56.452Z,17.13
2018-03-15T10:46:31.612Z,13.67
2018-03-15T10:49:06.776Z,19.60
2018-03-15T10:51:41.922Z,16.53
2018-03-15T10:54:17.389Z,15.37
2018-03-15T10:56:52.564Z,17.93
2018-03-15T10:59:27.614Z,15.53
2018-03-15T11:02:06.538Z,16.67
2018-03-15T11:04:47.079Z,15.77
2018-03-15T11:07:27.797Z,16.20
2018-03-15T11:10:03.454Z,13.63
2018-03-15T11:12:38.642Z,18.85
2018-03-15T11:15:13.901Z,18.27
2018-03-15T11:17:49.419Z,16.90
2018-03-15T11:20:24.558Z,12.27
2018-03-15T11:22:59.539Z,17.83
2018-03-15T11:25:34.801Z,18.20
2018-03-15T11:28:09.763Z,15.10
2018-03-15T11:30:45.389Z,19.08
2018-03-15T11:33:20.504Z,21.27
2018-03-15T11:35:55.642Z,15.33
2018-03-15T11:38:30.750Z,21.13
2018-03-15T11:41:05.426Z,12.93
2018-03-15T11:43:41.035Z,11.50
2018-03-15T11:46:16.247Z,16.50
2018-03-15T11:48:51.595Z,17.17
2018-03-15T11:51:26.772Z,19.90
2018-03-15T11:54:01.842Z,16.50
2018-03-15T11:56:37.790Z,18.02
2018-03-15T11:59:13.548Z,12.10
2018-03-15T12:01:48.657Z,17.57
2018-03-15T12:04:23.626Z,17.90
2018-03-15T12:06:58.625Z,14.90
2018-03-15T12:09:33.835Z,18.00
2018-03-15T12:12:08.788Z,15.10
2018-03-15T12:14:44.247Z,13.03
2018-03-15T12:17:19.700Z,13.83
2018-03-15T12:19:54.736Z,18.53
2018-03-15T12:22:30.090Z,19.10
2018-03-15T12:25:04.409Z,16.17
2018-03-15T12:27:39.663Z,16.53
2018-03-15T12:30:14.613Z,14.60
2018-03-15T12:32:49.624Z,18.67
2018-03-15T12:35:24.901Z,19.47
2018-03-15T12:37:59.719Z,18.90
2018-03-15T12:40:34.967Z,20.60
2018-03-15T12:43:09.702Z,22.67
2018-03-15T12:45:44.939Z,20.43
2018-03-15T12:48:19.879Z,19.90
2018-03-15T12:50:54.902Z,21.73
2018-03-15T12:53:30.064Z,19.50
2018-03-15T12:56:04.447Z,16.33
2018-03-15T12:58:39.571Z,16.35
2018-03-15T13:01:14.417Z,17.63
2018-03-15T13:03:49.727Z,21.50
2018-03-15T13:06:24.874Z,22.40
2018-03-15T13:08:59.821Z,19.10
2018-03-15T13:11:34.468Z,19.98
2018-03-15T13:14:09.832Z,19.47
2018-03-15T13:16:45.099Z,19.70
2018-03-15T13:19:20.227Z,16.77
2018-03-15T13:21:55.270Z,13.73
2018-03-15T13:24:30.725Z,13.70
2018-03-15T13:27:05.260Z,16.30
2018-03-15T13:29:39.722Z,21.10
2018-03-15T13:32:15.133Z,17.27
2018-03-15T13:34:49.966Z,16.93
2018-03-15T13:37:24.859Z,20.37
2018-03-15T13:39:59.902Z,19.10
2018-03-15T13:42:35.094Z,17.17
2018-03-15T13:45:10.059Z,19.53
2018-03-15T13:47:45.131Z,20.62
2018-03-15T13:50:19.934Z,19.17
2018-03-15T13:52:55.088Z,21.30
2018-03-15T13:55:30.292Z,21.30
2018-03-15T13:58:05.696Z,21.73
2018-03-15T14:00:40.872Z,20.33
2018-03-15T14:03:15.840Z,17.00
2018-03-15T14:05:50.844Z,21.77
2018-03-15T14:08:25.400Z,22.03
2018-03-15T14:11:00.428Z,20.50
2018-03-15T14:13:35.376Z,20.60
2018-03-15T14:16:10.084Z,20.13
2018-03-15T14:18:44.921Z,19.23
2018-03-15T14:21:20.076Z,20.27
2018-03-15T14:23:55.299Z,19.00
2018-03-15T14:26:30.127Z,19.43
2018-03-15T14:29:04.459Z,19.80
2018-03-15T14:31:39.092Z,23.73
2018-03-15T14:34:14.031Z,20.40
2018-03-15T14:36:49.171Z,22.30
2018-03-15T14:39:24.776Z,14.27
2018-03-15T14:41:59.900Z,22.23
2018-03-15T14:44:35.047Z,22.77
2018-03-15T14:47:09.831Z,26.30
2018-03-15T14:49:44.946Z,22.30
2018-03-15T14:52:20.001Z,17.07
2018-03-15T14:54:55.248Z,24.53
2018-03-15T14:57:30.366Z,25.50
2018-03-15T15:00:05.229Z,22.83
2018-03-15T15:02:40.202Z,23.87
2018-03-15T15:05:14.975Z,24.27
2018-03-15T15:07:50.119Z,25.93
2018-03-15T15:10:25.165Z,24.80
2018-03-15T15:13:00.233Z,26.73
2018-03-15T15:15:35.067Z,24.83
2018-03-15T15:18:10.064Z,29.47
2018-03-15T15:20:45.289Z,22.25
2018-03-15T15:23:20.318Z,24.07
2018-03-15T15:25:55.355Z,25.30
2018-03-15T15:28:30.435Z,22.00
2018-03-15T15:31:04.837Z,20.93
2018-03-15T15:33:40.308Z,25.57
2018-03-15T15:36:15.378Z,18.30
2018-03-15T15:38:50.524Z,21.83
2018-03-15T15:41:25.402Z,21.87
2018-03-15T15:44:00.329Z,13.93
2018-03-15T15:46:35.564Z,21.03
2018-03-15T15:49:10.112Z,19.13
2018-03-15T15:51:45.331Z,17.60
2018-03-15T15:54:19.960Z,23.15
2018-03-15T15:56:54.719Z,22.93
2018-03-15T15:59:30.446Z,23.10
2018-03-15T16:02:05.206Z,23.73
2018-03-15T16:04:39.635Z,21.47
2018-03-15T16:07:14.186Z,21.73
2018-03-15T16:09:49.161Z,23.60
2018-03-15T16:12:23.514Z,20.33
2018-03-15T16:14:58.459Z,19.27
2018-03-15T16:17:33.802Z,20.50
2018-03-15T16:20:08.443Z,22.40
2018-03-15T16:22:43.444Z,23.53
2018-03-15T16:25:18.483Z,25.27
2018-03-15T16:27:53.416Z,17.23
2018-03-15T16:30:28.399Z,18.27
2018-03-15T16:33:03.588Z,19.33
2018-03-15T16:35:39.128Z,21.90
2018-03-15T16:38:14.489Z,21.73
2018-03-15T16:40:49.625Z,20.77
2018-03-15T16:43:24.248Z,17.27
2018-03-15T16:45:59.219Z,18.93
2018-03-15T16:48:34.451Z,19.60
2018-03-15T16:51:09.432Z,13.17
2018-03-15T16:53:44.940Z,18.73
2018-03-15T16:56:19.600Z,19.10
2018-03-15T16:58:54.604Z,23.13
2018-03-15T17:01:30.646Z,24.90
2018-03-15T17:04:06.088Z,19.98
2018-03-15T17:06:41.148Z,21.05
2018-03-15T17:09:16.231Z,21.23
2018-03-15T17:11:51.234Z,20.23
2018-03-15T17:14:26.425Z,18.90
2018-03-15T17:17:01.500Z,20.70
2018-03-15T17:19:36.603Z,21.33
2018-03-15T17:22:11.528Z,21.80
2018-03-15T17:24:46.637Z,20.43
2018-03-15T17:27:21.567Z,21.47
2018-03-15T17:29:56.314Z,18.60
2018-03-15T17:32:31.647Z,16.50
2018-03-15T17:35:06.541Z,20.63
2018-03-15T17:37:41.825Z,24.93
2018-03-15T17:40:17.348Z,25.30
2018-03-15T17:42:52.314Z,12.07
2018-03-15T17:45:27.546Z,20.63
2018-03-15T17:48:02.395Z,14.97
2018-03-15T17:50:37.844Z,26.80
2018-03-15T17:53:12.874Z,25.60
2018-03-15T17:55:48.391Z,22.65
2018-03-15T17:58:23.634Z,21.67
2018-03-15T18:00:58.382Z,20.60
2018-03-15T18:03:33.223Z,20.35
2018-03-15T18:06:08.251Z,23.15
2018-03-15T18:08:43.639Z,22.60
2018-03-15T18:11:18.379Z,18.33
2018-03-15T18:13:53.496Z,16.83
2018-03-15T18:16:28.536Z,26.60
2018-03-15T18:19:03.585Z,22.77
2018-03-15T18:21:38.800Z,20.47
2018-03-15T18:24:13.450Z,25.03
2018-03-15T18:26:48.589Z,15.97
2018-03-15T18:29:23.732Z,20.17
2018-03-15T18:31:58.792Z,27.40
2018-03-15T18:34:33.934Z,24.50
2018-03-15T18:37:08.935Z,30.30
2018-03-15T18:39:43.892Z,27.40
2018-03-15T18:42:19.492Z,31.10
2018-03-15T18:44:54.456Z,15.77
2018-03-15T18:47:29.136Z,22.20
2018-03-15T18:50:03.607Z,29.67
2018-03-15T18:52:38.443Z,29.75
2018-03-15T18:55:13.578Z,22.90
2018-03-15T18:57:48.519Z,28.40
2018-03-15T19:00:23.534Z,24.37
2018-03-15T19:02:58.675Z,19.17
2018-03-15T19:05:34.306Z,23.57
2018-03-15T19:08:09.134Z,29.90
2018-03-15T19:10:44.109Z,28.37
2018-03-15T19:13:18.776Z,26.63
2018-03-15T19:15:53.207Z,19.52
2018-03-15T19:18:27.869Z,23.13
2018-03-15T19:21:02.553Z,17.27
2018-03-15T19:23:37.544Z,24.47
2018-03-15T19:26:12.294Z,32.50
2018-03-15T19:28:47.740Z,24.52
2018-03-15T19:31:22.779Z,24.20
2018-03-15T19:33:57.628Z,18.43
2018-03-15T19:36:32.371Z,16.60
2018-03-15T19:39:07.828Z,27.93
2018-03-15T19:41:42.595Z,21.77
2018-03-15T19:44:16.998Z,25.93
2018-03-15T19:46:51.818Z,15.47
2018-03-15T19:49:27.285Z,23.00
2018-03-15T19:52:02.269Z,21.50
2018-03-15T19:54:37.554Z,21.53
2018-03-15T19:57:12.672Z,21.97
2018-03-15T19:59:48.437Z,19.93
2018-03-15T20:02:22.912Z,24.97
2018-03-15T20:04:57.782Z,24.80
2018-03-15T20:07:33.053Z,18.20
2018-03-15T20:10:07.855Z,21.47
2018-03-15T20:12:43.500Z,28.92
2018-03-15T20:15:18.090Z,21.03
2018-03-15T20:17:52.680Z,22.87
2018-03-15T20:20:27.917Z,24.17
2018-03-15T20:23:08.210Z,18.35
2018-03-15T20:25:43.638Z,21.17
2018-03-15T20:28:24.122Z,18.27
2018-03-15T20:30:59.763Z,22.80
2018-03-15T20:33:40.432Z,22.50
2018-03-15T20:36:15.074Z,24.10
2018-03-15T20:38:50.294Z,19.73
2018-03-15T20:41:25.632Z,26.70
2018-03-15T20:44:00.978Z,20.20
2018-03-15T20:46:41.500Z,27.57
2018-03-15T20:49:16.965Z,20.40
2018-03-15T20:51:51.922Z,25.00
2018-03-15T20:54:27.182Z,19.00
2018-03-15T20:57:02.291Z,17.47
2018-03-15T20:59:38.065Z,39.60
2018-03-15T21:02:12.413Z,19.33
2018-03-15T21:04:47.836Z,25.30
2018-03-15T21:07:22.755Z,26.48
2018-03-15T21:09:57.674Z,26.70
2018-03-15T21:12:32.788Z,30.07
2018-03-15T21:15:07.848Z,23.70
2018-03-15T21:17:43.074Z,26.67
2018-03-15T21:20:18.120Z,20.23
2018-03-15T21:22:53.426Z,31.20
2018-03-15T21:25:27.939Z,33.80
2018-03-15T21:28:02.956Z,32.90
2018-03-15T21:30:38.157Z,29.50
2018-03-15T21:33:13.297Z,31.47
2018-03-15T21:35:47.962Z,30.03
2018-03-15T21:38:22.991Z,20.53
2018-03-15T21:40:58.170Z,32.13
2018-03-15T21:43:33.431Z,26.70
2018-03-15T21:46:08.940Z,29.90
2018-03-15T21:48:44.079Z,25.77
2018-03-15T21:51:18.899Z,31.67
2018-03-15T21:53:53.880Z,35.20
2018-03-15T21:56:29.126Z,30.53
2018-03-15T21:59:04.172Z,34.10
2018-03-15T22:01:39.391Z,30.97
2018-03-15T22:04:14.362Z,32.17
2018-03-15T22:06:49.285Z,25.23
2018-03-15T22:09:24.051Z,30.30
2018-03-15T22:11:59.276Z,25.70
2018-03-15T22:14:34.764Z,32.30
2018-03-15T22:17:10.011Z,22.48
2018-03-15T22:19:45.297Z,32.17
2018-03-15T22:22:19.912Z,25.57
2018-03-15T22:24:55.046Z,36.40
2018-03-15T22:27:31.336Z,30.40
2018-03-15T22:30:06.153Z,35.03
2018-03-15T22:32:41.258Z,35.58
2018-03-15T22:35:16.326Z,37.00
2018-03-15T22:37:51.316Z,32.83
2018-03-15T22:40:26.198Z,37.97
2018-03-15T22:43:01.055Z,36.90
2018-03-15T22:45:36.280Z,36.77
2018-03-15T22:48:11.127Z,42.17
2018-03-15T22:50:46.327Z,39.65
2018-03-15T22:53:21.141Z,39.87
2018-03-15T22:55:56.121Z,32.07
2018-03-15T22:58:31.450Z,30.67
2018-03-15T23:01:07.013Z,35.72
2018-03-15T23:03:42.068Z,34.08
2018-03-15T23:06:17.072Z,32.95
2018-03-15T23:08:52.153Z,29.77
2018-03-15T23:11:27.225Z,33.47
2018-03-15T23:14:02.356Z,40.80
2018-03-15T23:16:37.523Z,36.67
2018-03-15T23:19:12.488Z,30.07
2018-03-15T23:21:47.556Z,46.90
2018-03-15T23:24:22.592Z,31.30
2018-03-15T23:26:57.596Z,47.37
2018-03-15T23:29:32.817Z,37.17
2018-03-15T23:32:07.678Z,39.30
2018-03-15T23:34:42.729Z,37.47
2018-03-15T23:37:17.348Z,35.50
2018-03-15T23:39:52.404Z,43.33
2018-03-15T23:42:27.015Z,48.65
2018-03-15T23:45:02.185Z,46.60
2018-03-15T23:47:37.466Z,40.45
2018-03-15T23:50:12.498Z,53.20
2018-03-15T23:52:47.122Z,47.85
2018-03-15T23:55:22.297Z,46.40
2018-03-15T23:57:57.345Z,39.13
